sensor_id;sensor_type;location;lat;lon;timestamp;pressure;altitude;pressure_sealevel;temperature;humidity
63115;BME280;49208;50.874;6.466;2023-08-06T06:01:45;99230.66;;;14.33;100.00
63115;BME280;49208;50.874;6.466;2023-08-06T06:04:10;99226.69;;;14.39;100.00
63115;BME280;49208;50.874;6.466;2023-08-06T06:06:35;99232.56;;;14.44;100.00
63115;BME280;49208;50.874;6.466;2023-08-06T06:09:01;99228.78;;;14.46;100.00
63115;BME280;49208;50.874;6.466;2023-08-06T06:11:26;99230.28;;;14.50;100.00
63115;BME280;49208;50.874;6.466;2023-08-06T06:13:51;99239.06;;;14.52;100.00
63115;BME280;49208;50.874;6.466;2023-08-06T06:16:17;99244.44;;;14.52;100.00
63115;BME280;49208;50.874;6.466;2023-08-06T06:18:42;99240.06;;;14.51;100.00
63115;BME280;49208;50.874;6.466;2023-08-06T06:21:10;99244.44;;;14.52;100.00
63115;BME280;49208;50.874;6.466;2023-08-06T06:23:35;99245.31;;;14.53;100.00
63115;BME280;49208;50.874;6.466;2023-08-06T06:26:01;99243.28;;;14.57;100.00
63115;BME280;49208;50.874;6.466;2023-08-06T06:28:26;99247.44;;;14.61;100.00
63115;BME280;49208;50.874;6.466;2023-08-06T06:30:51;99254.94;;;14.68;100.00
63115;BME280;49208;50.874;6.466;2023-08-06T06:33:17;99250.13;;;14.73;100.00
63115;BME280;49208;50.874;6.466;2023-08-06T06:35:42;99253.97;;;14.82;100.00
63115;BME280;49208;50.874;6.466;2023-08-06T06:38:08;99255.22;;;14.89;100.00
63115;BME280;49208;50.874;6.466;2023-08-06T06:40:33;99254.66;;;14.97;100.00
63115;BME280;49208;50.874;6.466;2023-08-06T06:42:58;99263.75;;;15.07;100.00
63115;BME280;49208;50.874;6.466;2023-08-06T06:45:24;99257.47;;;15.20;100.00
63115;BME280;49208;50.874;6.466;2023-08-06T06:47:49;99267.31;;;15.32;100.00
63115;BME280;49208;50.874;6.466;2023-08-06T06:50:15;99261.88;;;15.45;100.00
63115;BME280;49208;50.874;6.466;2023-08-06T06:52:41;99261.16;;;15.54;100.00
63115;BME280;49208;50.874;6.466;2023-08-06T06:55:06;99264.56;;;15.69;100.00
63115;BME280;49208;50.874;6.466;2023-08-06T06:57:32;99275.22;;;15.82;100.00
63115;BME280;49208;50.874;6.466;2023-08-06T06:59:57;99267.66;;;15.87;100.00
63115;BME280;49208;50.874;6.466;2023-08-06T07:02:22;99275.72;;;15.87;100.00
63115;BME280;49208;50.874;6.466;2023-08-06T07:04:49;99271.44;;;15.84;100.00
63115;BME280;49208;50.874;6.466;2023-08-06T07:07:15;99274.34;;;15.81;100.00
63115;BME280;49208;50.874;6.466;2023-08-06T07:09:40;99276.19;;;15.81;100.00
63115;BME280;49208;50.874;6.466;2023-08-06T07:12:06;99276.44;;;15.78;100.00
63115;BME280;49208;50.874;6.466;2023-08-06T07:14:31;99276.97;;;15.70;100.00
63115;BME280;49208;50.874;6.466;2023-08-06T07:16:56;99281.72;;;15.66;100.00
63115;BME280;49208;50.874;6.466;2023-08-06T07:19:23;99280.22;;;15.62;100.00
63115;BME280;49208;50.874;6.466;2023-08-06T07:21:48;99283.16;;;15.59;100.00
63115;BME280;49208;50.874;6.466;2023-08-06T07:24:14;99293.03;;;15.59;100.00
63115;BME280;49208;50.874;6.466;2023-08-06T07:26:39;99284.84;;;15.60;100.00
63115;BME280;49208;50.874;6.466;2023-08-06T07:29:04;99286.69;;;15.60;100.00
63115;BME280;49208;50.874;6.466;2023-08-06T07:31:30;99290.00;;;15.63;100.00
63115;BME280;49208;50.874;6.466;2023-08-06T07:33:55;99292.22;;;15.69;100.00
63115;BME280;49208;50.874;6.466;2023-08-06T07:36:21;99301.31;;;15.80;100.00
63115;BME280;49208;50.874;6.466;2023-08-06T07:38:46;99303.28;;;15.89;100.00
63115;BME280;49208;50.874;6.466;2023-08-06T07:41:13;99301.97;;;15.94;100.00
63115;BME280;49208;50.874;6.466;2023-08-06T07:43:39;99310.53;;;16.00;100.00
63115;BME280;49208;50.874;6.466;2023-08-06T07:46:04;99303.34;;;16.00;100.00
63115;BME280;49208;50.874;6.466;2023-08-06T07:48:30;99303.63;;;16.08;100.00
63115;BME280;49208;50.874;6.466;2023-08-06T07:50:55;99310.31;;;16.14;100.00
63115;BME280;49208;50.874;6.466;2023-08-06T07:53:21;99305.59;;;16.17;100.00
63115;BME280;49208;50.874;6.466;2023-08-06T07:55:54;99315.22;;;16.20;100.00
63115;BME280;49208;50.874;6.466;2023-08-06T07:58:20;99311.94;;;16.16;100.00
63115;BME280;49208;50.874;6.466;2023-08-06T08:00:46;99319.38;;;16.13;100.00
63115;BME280;49208;50.874;6.466;2023-08-06T08:03:13;99318.75;;;16.09;100.00
63115;BME280;49208;50.874;6.466;2023-08-06T08:05:39;99326.78;;;16.09;100.00
63115;BME280;49208;50.874;6.466;2023-08-06T08:08:05;99324.47;;;16.05;100.00
63115;BME280;49208;50.874;6.466;2023-08-06T08:10:31;99325.56;;;16.02;100.00
63115;BME280;49208;50.874;6.466;2023-08-06T08:12:57;99325.78;;;15.99;100.00
63115;BME280;49208;50.874;6.466;2023-08-06T08:15:22;99330.66;;;15.94;100.00
63115;BME280;49208;50.874;6.466;2023-08-06T08:17:47;99339.03;;;15.89;100.00
63115;BME280;49208;50.874;6.466;2023-08-06T08:20:14;99342.31;;;15.82;100.00
63115;BME280;49208;50.874;6.466;2023-08-06T08:22:40;99351.13;;;15.71;100.00
63115;BME280;49208;50.874;6.466;2023-08-06T08:25:05;99350.72;;;15.64;100.00
63115;BME280;49208;50.874;6.466;2023-08-06T08:27:31;99358.03;;;15.62;100.00
63115;BME280;49208;50.874;6.466;2023-08-06T08:29:57;99354.00;;;15.56;100.00
63115;BME280;49208;50.874;6.466;2023-08-06T08:32:22;99349.47;;;15.57;100.00
63115;BME280;49208;50.874;6.466;2023-08-06T08:34:47;99356.44;;;15.60;100.00
63115;BME280;49208;50.874;6.466;2023-08-06T08:37:13;99352.16;;;15.57;100.00
63115;BME280;49208;50.874;6.466;2023-08-06T08:39:39;99356.31;;;15.61;100.00
63115;BME280;49208;50.874;6.466;2023-08-06T08:42:05;99358.16;;;15.61;100.00
63115;BME280;49208;50.874;6.466;2023-08-06T08:44:32;99360.84;;;15.61;100.00
63115;BME280;49208;50.874;6.466;2023-08-06T08:46:59;99353.84;;;15.58;100.00
63115;BME280;49208;50.874;6.466;2023-08-06T08:49:26;99351.63;;;15.52;100.00
63115;BME280;49208;50.874;6.466;2023-08-06T08:51:53;99361.50;;;15.51;100.00
63115;BME280;49208;50.874;6.466;2023-08-06T08:54:20;99360.47;;;15.41;100.00
63115;BME280;49208;50.874;6.466;2023-08-06T08:56:46;99375.84;;;15.26;100.00
63115;BME280;49208;50.874;6.466;2023-08-06T08:59:11;99396.78;;;15.08;100.00
63115;BME280;49208;50.874;6.466;2023-08-06T09:01:39;99397.88;;;14.93;100.00
63115;BME280;49208;50.874;6.466;2023-08-06T09:04:05;99404.63;;;14.73;100.00
63115;BME280;49208;50.874;6.466;2023-08-06T09:06:33;99409.31;;;14.57;100.00
63115;BME280;49208;50.874;6.466;2023-08-06T09:09:08;99425.75;;;14.38;100.00
63115;BME280;49208;50.874;6.466;2023-08-06T09:11:39;99430.22;;;14.24;100.00
63115;BME280;49208;50.874;6.466;2023-08-06T09:14:07;99441.66;;;14.13;100.00
63115;BME280;49208;50.874;6.466;2023-08-06T09:16:36;99447.50;;;14.06;100.00
63115;BME280;49208;50.874;6.466;2023-08-06T09:19:08;99452.72;;;13.94;100.00
63115;BME280;49208;50.874;6.466;2023-08-06T09:21:37;99470.09;;;13.87;100.00
63115;BME280;49208;50.874;6.466;2023-08-06T09:24:10;99463.47;;;13.80;100.00
63115;BME280;49208;50.874;6.466;2023-08-06T09:26:40;99467.56;;;13.71;100.00
63115;BME280;49208;50.874;6.466;2023-08-06T09:29:06;99481.13;;;13.68;100.00
63115;BME280;49208;50.874;6.466;2023-08-06T09:31:39;99490.22;;;13.66;100.00
63115;BME280;49208;50.874;6.466;2023-08-06T09:34:19;99489.56;;;13.62;100.00
63115;BME280;49208;50.874;6.466;2023-08-06T09:36:48;99498.06;;;13.54;100.00
63115;BME280;49208;50.874;6.466;2023-08-06T09:39:18;99515.16;;;13.52;100.00
63115;BME280;49208;50.874;6.466;2023-08-06T09:41:44;99504.66;;;13.49;100.00
63115;BME280;49208;50.874;6.466;2023-08-06T09:44:18;99510.41;;;13.43;100.00
63115;BME280;49208;50.874;6.466;2023-08-06T09:46:52;99520.50;;;13.38;100.00
63115;BME280;49208;50.874;6.466;2023-08-06T09:49:18;99531.47;;;13.33;100.00
63115;BME280;49208;50.874;6.466;2023-08-06T09:51:44;99531.66;;;13.30;100.00
63115;BME280;49208;50.874;6.466;2023-08-06T09:54:12;99543.31;;;13.29;100.00
63115;BME280;49208;50.874;6.466;2023-08-06T09:56:40;99543.44;;;13.26;100.00
63115;BME280;49208;50.874;6.466;2023-08-06T09:59:07;99557.78;;;13.25;100.00
63115;BME280;49208;50.874;6.466;2023-08-06T10:01:34;99554.34;;;13.23;100.00
63115;BME280;49208;50.874;6.466;2023-08-06T10:04:04;99568.75;;;13.20;100.00
63115;BME280;49208;50.874;6.466;2023-08-06T10:06:33;99566.94;;;13.21;100.00
63115;BME280;49208;50.874;6.466;2023-08-06T10:08:59;99568.75;;;13.20;100.00
63115;BME280;49208;50.874;6.466;2023-08-06T10:11:24;99569.63;;;13.21;100.00
63115;BME280;49208;50.874;6.466;2023-08-06T10:13:55;99577.63;;;13.21;100.00
63115;BME280;49208;50.874;6.466;2023-08-06T10:16:22;99586.59;;;13.20;100.00
63115;BME280;49208;50.874;6.466;2023-08-06T10:18:49;99577.72;;;13.19;100.00
63115;BME280;49208;50.874;6.466;2023-08-06T10:21:15;99582.13;;;13.20;100.00
63115;BME280;49208;50.874;6.466;2023-08-06T10:23:41;99588.41;;;13.19;100.00
63115;BME280;49208;50.874;6.466;2023-08-06T10:26:16;99583.75;;;13.23;100.00
63115;BME280;49208;50.874;6.466;2023-08-06T10:28:41;99587.28;;;13.23;100.00
63115;BME280;49208;50.874;6.466;2023-08-06T10:31:07;99588.03;;;13.25;100.00
63115;BME280;49208;50.874;6.466;2023-08-06T10:36:09;99594.88;;;13.31;100.00
63115;BME280;49208;50.874;6.466;2023-08-06T10:38:35;99597.25;;;13.36;100.00
63115;BME280;49208;50.874;6.466;2023-08-06T10:41:17;99606.88;;;13.38;100.00
63115;BME280;49208;50.874;6.466;2023-08-06T10:43:47;99603.06;;;13.42;100.00
63115;BME280;49208;50.874;6.466;2023-08-06T10:46:22;99596.50;;;13.48;100.00
63115;BME280;49208;50.874;6.466;2023-08-06T10:48:48;99602.44;;;13.53;100.00
63115;BME280;49208;50.874;6.466;2023-08-06T10:51:15;99608.91;;;13.63;100.00
63115;BME280;49208;50.874;6.466;2023-08-06T10:53:42;99608.44;;;13.71;100.00
63115;BME280;49208;50.874;6.466;2023-08-06T10:56:18;99609.81;;;13.78;100.00
63115;BME280;49208;50.874;6.466;2023-08-06T10:58:45;99605.00;;;13.83;100.00
63115;BME280;49208;50.874;6.466;2023-08-06T11:01:10;99613.63;;;13.88;100.00
63115;BME280;49208;50.874;6.466;2023-08-06T11:03:37;99604.25;;;13.95;100.00
63115;BME280;49208;50.874;6.466;2023-08-06T11:06:03;99611.03;;;14.01;100.00
63115;BME280;49208;50.874;6.466;2023-08-06T11:08:37;99610.81;;;14.04;100.00
63115;BME280;49208;50.874;6.466;2023-08-06T11:11:10;99611.50;;;14.08;100.00
63115;BME280;49208;50.874;6.466;2023-08-06T11:13:38;99612.94;;;14.13;100.00
63115;BME280;49208;50.874;6.466;2023-08-06T11:16:05;99620.56;;;14.20;100.00
63115;BME280;49208;50.874;6.466;2023-08-06T11:18:31;99615.88;;;14.23;100.00
63115;BME280;49208;50.874;6.466;2023-08-06T11:20:59;99609.75;;;14.21;100.00
63115;BME280;49208;50.874;6.466;2023-08-06T11:23:26;99619.22;;;14.27;100.00
63115;BME280;49208;50.874;6.466;2023-08-06T11:25:53;99619.13;;;14.28;100.00
63115;BME280;49208;50.874;6.466;2023-08-06T11:28:19;99622.47;;;14.32;100.00
63115;BME280;49208;50.874;6.466;2023-08-06T11:30:47;99621.94;;;14.40;100.00
63115;BME280;49208;50.874;6.466;2023-08-06T11:33:12;99622.31;;;14.48;100.00
63115;BME280;49208;50.874;6.466;2023-08-06T11:35:38;99624.53;;;14.55;100.00
63115;BME280;49208;50.874;6.466;2023-08-06T11:38:03;99623.28;;;14.61;100.00
63115;BME280;49208;50.874;6.466;2023-08-06T11:40:29;99626.50;;;14.66;100.00
63115;BME280;49208;50.874;6.466;2023-08-06T11:42:54;99626.31;;;14.69;100.00
63115;BME280;49208;50.874;6.466;2023-08-06T11:45:24;99639.50;;;14.72;100.00
63115;BME280;49208;50.874;6.466;2023-08-06T11:47:51;99640.69;;;14.81;100.00
63115;BME280;49208;50.874;6.466;2023-08-06T11:50:25;99633.13;;;14.88;100.00
63115;BME280;49208;50.874;6.466;2023-08-06T11:52:59;99634.53;;;14.93;100.00
63115;BME280;49208;50.874;6.466;2023-08-06T11:55:26;99636.91;;;14.98;100.00
63115;BME280;49208;50.874;6.466;2023-08-06T11:57:52;99633.81;;;15.04;100.00
63115;BME280;49208;50.874;6.466;2023-08-06T12:00:17;99636.97;;;15.11;100.00
63115;BME280;49208;50.874;6.466;2023-08-06T12:02:46;99637.41;;;15.18;100.00
63115;BME280;49208;50.874;6.466;2023-08-06T12:05:16;99639.13;;;15.31;100.00
63115;BME280;49208;50.874;6.466;2023-08-06T12:07:52;99629.28;;;15.45;100.00
63115;BME280;49208;50.874;6.466;2023-08-06T12:10:18;99631.03;;;15.59;100.00
63115;BME280;49208;50.874;6.466;2023-08-06T12:12:45;99636.19;;;15.74;100.00
63115;BME280;49208;50.874;6.466;2023-08-06T12:15:11;99635.66;;;15.95;100.00
63115;BME280;49208;50.874;6.466;2023-08-06T12:17:37;99629.31;;;16.09;100.00
63115;BME280;49208;50.874;6.466;2023-08-06T12:20:06;99634.41;;;16.25;100.00
63115;BME280;49208;50.874;6.466;2023-08-06T12:22:36;99635.34;;;16.36;100.00
63115;BME280;49208;50.874;6.466;2023-08-06T12:25:04;99627.84;;;16.42;100.00
63115;BME280;49208;50.874;6.466;2023-08-06T12:27:35;99646.06;;;16.49;100.00
63115;BME280;49208;50.874;6.466;2023-08-06T12:30:01;99645.22;;;16.49;100.00
63115;BME280;49208;50.874;6.466;2023-08-06T12:32:29;99649.63;;;16.50;100.00
63115;BME280;49208;50.874;6.466;2023-08-06T12:34:54;99639.50;;;16.53;100.00
63115;BME280;49208;50.874;6.466;2023-08-06T12:37:19;99649.94;;;16.58;100.00
63115;BME280;49208;50.874;6.466;2023-08-06T12:39:45;99657.34;;;16.54;100.00
63115;BME280;49208;50.874;6.466;2023-08-06T12:42:10;99652.81;;;16.55;100.00
63115;BME280;49208;50.874;6.466;2023-08-06T12:44:36;99661.66;;;16.44;100.00
63115;BME280;49208;50.874;6.466;2023-08-06T12:47:01;99658.78;;;16.34;100.00
63115;BME280;49208;50.874;6.466;2023-08-06T12:49:26;99670.94;;;16.27;100.00
63115;BME280;49208;50.874;6.466;2023-08-06T12:51:53;99678.56;;;16.21;100.00
63115;BME280;49208;50.874;6.466;2023-08-06T12:54:19;99675.38;;;16.15;100.00
63115;BME280;49208;50.874;6.466;2023-08-06T12:56:45;99686.84;;;16.17;100.00
63115;BME280;49208;50.874;6.466;2023-08-06T12:59:13;99670.41;;;16.22;100.00
63115;BME280;49208;50.874;6.466;2023-08-06T13:01:39;99685.66;;;16.22;100.00
63115;BME280;49208;50.874;6.466;2023-08-06T13:04:04;99682.00;;;16.23;100.00
63115;BME280;49208;50.874;6.466;2023-08-06T13:06:30;99687.38;;;16.35;100.00
63115;BME280;49208;50.874;6.466;2023-08-06T13:08:56;99686.94;;;16.42;100.00
63115;BME280;49208;50.874;6.466;2023-08-06T13:11:22;99702.47;;;16.49;100.00
63115;BME280;49208;50.874;6.466;2023-08-06T13:13:48;99696.56;;;16.57;100.00
63115;BME280;49208;50.874;6.466;2023-08-06T13:16:13;99707.59;;;16.65;100.00
63115;BME280;49208;50.874;6.466;2023-08-06T13:18:38;99705.66;;;16.67;100.00
63115;BME280;49208;50.874;6.466;2023-08-06T13:21:04;99699.66;;;16.64;100.00
63115;BME280;49208;50.874;6.466;2023-08-06T13:23:29;99710.34;;;16.52;100.00
63115;BME280;49208;50.874;6.466;2023-08-06T13:25:54;99712.59;;;16.46;100.00
63115;BME280;49208;50.874;6.466;2023-08-06T13:28:20;99711.84;;;16.31;100.00
63115;BME280;49208;50.874;6.466;2023-08-06T13:30:46;99710.91;;;16.19;100.00
63115;BME280;49208;50.874;6.466;2023-08-06T13:33:11;99719.19;;;16.03;100.00
63115;BME280;49208;50.874;6.466;2023-08-06T13:35:37;99725.63;;;16.01;100.00
63115;BME280;49208;50.874;6.466;2023-08-06T13:38:03;99726.81;;;15.96;100.00
63115;BME280;49208;50.874;6.466;2023-08-06T13:40:29;99723.91;;;16.00;100.00
63115;BME280;49208;50.874;6.466;2023-08-06T13:42:55;99727.66;;;16.10;100.00
63115;BME280;49208;50.874;6.466;2023-08-06T13:45:21;99732.16;;;16.22;100.00
63115;BME280;49208;50.874;6.466;2023-08-06T13:47:46;99721.84;;;16.29;100.00
63115;BME280;49208;50.874;6.466;2023-08-06T13:50:13;99730.44;;;16.34;100.00
63115;BME280;49208;50.874;6.466;2023-08-06T13:52:38;99730.22;;;16.37;100.00
63115;BME280;49208;50.874;6.466;2023-08-06T13:55:04;99729.25;;;16.38;100.00
63115;BME280;49208;50.874;6.466;2023-08-06T13:57:30;99737.97;;;16.29;100.00
63115;BME280;49208;50.874;6.466;2023-08-06T13:59:55;99750.97;;;16.22;100.00
63115;BME280;49208;50.874;6.466;2023-08-06T14:02:22;99734.84;;;16.09;100.00
63115;BME280;49208;50.874;6.466;2023-08-06T14:04:47;99743.75;;;15.97;100.00
63115;BME280;49208;50.874;6.466;2023-08-06T14:07:13;99743.44;;;15.89;100.00
63115;BME280;49208;50.874;6.466;2023-08-06T14:09:38;99749.47;;;15.92;100.00
63115;BME280;49208;50.874;6.466;2023-08-06T14:12:05;99749.03;;;15.86;100.00
63115;BME280;49208;50.874;6.466;2023-08-06T14:14:31;99755.84;;;15.77;100.00
63115;BME280;49208;50.874;6.466;2023-08-06T14:16:56;99755.00;;;15.76;100.00
63115;BME280;49208;50.874;6.466;2023-08-06T14:19:21;99752.31;;;15.76;100.00
63115;BME280;49208;50.874;6.466;2023-08-06T14:21:47;99762.97;;;15.78;100.00
63115;BME280;49208;50.874;6.466;2023-08-06T14:24:12;99760.50;;;15.75;100.00
63115;BME280;49208;50.874;6.466;2023-08-06T14:26:38;99767.34;;;15.79;100.00
63115;BME280;49208;50.874;6.466;2023-08-06T14:29:04;99765.13;;;15.73;100.00
63115;BME280;49208;50.874;6.466;2023-08-06T14:31:30;99768.19;;;15.67;100.00
63115;BME280;49208;50.874;6.466;2023-08-06T14:33:55;99767.09;;;15.56;100.00
63115;BME280;49208;50.874;6.466;2023-08-06T14:36:21;99764.50;;;15.55;100.00
63115;BME280;49208;50.874;6.466;2023-08-06T14:38:47;99768.59;;;15.61;100.00
63115;BME280;49208;50.874;6.466;2023-08-06T14:41:12;99772.78;;;15.65;100.00
63115;BME280;49208;50.874;6.466;2023-08-06T14:43:37;99779.09;;;15.64;100.00
63115;BME280;49208;50.874;6.466;2023-08-06T14:46:03;99775.56;;;15.63;100.00
63115;BME280;49208;50.874;6.466;2023-08-06T14:48:29;99775.66;;;15.62;100.00
63115;BME280;49208;50.874;6.466;2023-08-06T14:50:54;99776.66;;;15.61;100.00
63115;BME280;49208;50.874;6.466;2023-08-06T14:53:20;99771.97;;;15.50;100.00
63115;BME280;49208;50.874;6.466;2023-08-06T14:55:45;99777.47;;;15.48;100.00
63115;BME280;49208;50.874;6.466;2023-08-06T14:58:11;99780.25;;;15.47;100.00
63115;BME280;49208;50.874;6.466;2023-08-06T15:00:36;99787.66;;;15.56;100.00
63115;BME280;49208;50.874;6.466;2023-08-06T15:03:02;99785.44;;;15.63;100.00
63115;BME280;49208;50.874;6.466;2023-08-06T15:05:27;99787.44;;;15.73;100.00
63115;BME280;49208;50.874;6.466;2023-08-06T15:07:52;99790.88;;;15.75;100.00
63115;BME280;49208;50.874;6.466;2023-08-06T15:10:18;99791.31;;;15.82;100.00
63115;BME280;49208;50.874;6.466;2023-08-06T15:12:43;99795.81;;;15.82;100.00
63115;BME280;49208;50.874;6.466;2023-08-06T15:15:09;99796.88;;;15.79;100.00
63115;BME280;49208;50.874;6.466;2023-08-06T15:17:35;99808.25;;;15.83;100.00
63115;BME280;49208;50.874;6.466;2023-08-06T15:20:00;99816.22;;;15.84;100.00
63115;BME280;49208;50.874;6.466;2023-08-06T15:22:26;99817.06;;;15.85;100.00
63115;BME280;49208;50.874;6.466;2023-08-06T15:24:52;99812.56;;;15.85;100.00
63115;BME280;49208;50.874;6.466;2023-08-06T15:27:17;99815.47;;;15.82;100.00
63115;BME280;49208;50.874;6.466;2023-08-06T15:29:43;99817.16;;;15.83;100.00
63115;BME280;49208;50.874;6.466;2023-08-06T15:32:09;99819.97;;;15.82;100.00
63115;BME280;49208;50.874;6.466;2023-08-06T15:34:35;99822.09;;;15.76;100.00
63115;BME280;49208;50.874;6.466;2023-08-06T15:37:00;99824.78;;;15.76;100.00
63115;BME280;49208;50.874;6.466;2023-08-06T15:39:26;99828.53;;;15.74;100.00
63115;BME280;49208;50.874;6.466;2023-08-06T15:41:51;99836.59;;;15.60;100.00
63115;BME280;49208;50.874;6.466;2023-08-06T15:44:17;99833.47;;;15.53;100.00
63115;BME280;49208;50.874;6.466;2023-08-06T15:46:42;99835.91;;;15.43;100.00
63115;BME280;49208;50.874;6.466;2023-08-06T15:49:07;99840.81;;;15.36;100.00
63115;BME280;49208;50.874;6.466;2023-08-06T15:51:33;99847.31;;;15.32;100.00
63115;BME280;49208;50.874;6.466;2023-08-06T15:53:58;99844.56;;;15.34;100.00
63115;BME280;49208;50.874;6.466;2023-08-06T15:56:24;99852.22;;;15.26;100.00
63115;BME280;49208;50.874;6.466;2023-08-06T15:58:49;99848.88;;;15.22;100.00
63115;BME280;49208;50.874;6.466;2023-08-06T16:01:14;99855.50;;;15.16;100.00
63115;BME280;49208;50.874;6.466;2023-08-06T16:03:40;99862.50;;;15.19;100.00
63115;BME280;49208;50.874;6.466;2023-08-06T16:06:09;99876.00;;;15.18;100.00
63115;BME280;49208;50.874;6.466;2023-08-06T16:08:34;99870.72;;;15.16;100.00
63115;BME280;49208;50.874;6.466;2023-08-06T16:11:00;99875.31;;;15.14;100.00
63115;BME280;49208;50.874;6.466;2023-08-06T16:13:25;99880.00;;;15.10;100.00
63115;BME280;49208;50.874;6.466;2023-08-06T16:15:51;99880.41;;;15.04;100.00
63115;BME280;49208;50.874;6.466;2023-08-06T16:18:16;99883.19;;;15.03;100.00
63115;BME280;49208;50.874;6.466;2023-08-06T16:20:42;99873.81;;;14.95;100.00
63115;BME280;49208;50.874;6.466;2023-08-06T16:23:08;99879.16;;;14.95;100.00
63115;BME280;49208;50.874;6.466;2023-08-06T16:25:37;99881.06;;;14.93;100.00
63115;BME280;49208;50.874;6.466;2023-08-06T16:28:02;99883.00;;;14.91;100.00
63115;BME280;49208;50.874;6.466;2023-08-06T16:30:27;99900.88;;;14.77;100.00
63115;BME280;49208;50.874;6.466;2023-08-06T16:32:57;99895.34;;;14.65;100.00
63115;BME280;49208;50.874;6.466;2023-08-06T16:35:22;99891.56;;;14.53;100.00
63115;BME280;49208;50.874;6.466;2023-08-06T16:37:48;99898.44;;;14.43;100.00
63115;BME280;49208;50.874;6.466;2023-08-06T16:40:13;99892.94;;;14.30;100.00
63115;BME280;49208;50.874;6.466;2023-08-06T16:42:39;99906.69;;;14.24;100.00
63115;BME280;49208;50.874;6.466;2023-08-06T16:45:05;99906.56;;;14.11;100.00
63115;BME280;49208;50.874;6.466;2023-08-06T16:47:30;99908.56;;;14.08;100.00
63115;BME280;49208;50.874;6.466;2023-08-06T16:49:56;99908.63;;;14.06;100.00
63115;BME280;49208;50.874;6.466;2023-08-06T16:52:22;99904.41;;;14.02;100.00
63115;BME280;49208;50.874;6.466;2023-08-06T16:54:48;99917.13;;;13.99;100.00
63115;BME280;49208;50.874;6.466;2023-08-06T16:57:14;99927.22;;;13.93;100.00
63115;BME280;49208;50.874;6.466;2023-08-06T16:59:39;99944.25;;;13.92;100.00
63115;BME280;49208;50.874;6.466;2023-08-06T17:02:05;99934.56;;;13.90;100.00
63115;BME280;49208;50.874;6.466;2023-08-06T17:04:31;99941.16;;;13.84;100.00
63115;BME280;49208;50.874;6.466;2023-08-06T17:06:56;99949.25;;;13.83;100.00
63115;BME280;49208;50.874;6.466;2023-08-06T17:09:22;99944.06;;;13.80;100.00
63115;BME280;49208;50.874;6.466;2023-08-06T17:11:47;99955.81;;;13.77;100.00
63115;BME280;49208;50.874;6.466;2023-08-06T17:14:13;99964.88;;;13.74;100.00
63115;BME280;49208;50.874;6.466;2023-08-06T17:16:38;99965.22;;;13.68;100.00
63115;BME280;49208;50.874;6.466;2023-08-06T17:19:04;99971.75;;;13.63;100.00
63115;BME280;49208;50.874;6.466;2023-08-06T17:21:29;99971.75;;;13.63;100.00
63115;BME280;49208;50.874;6.466;2023-08-06T17:23:55;99980.06;;;13.58;100.00
63115;BME280;49208;50.874;6.466;2023-08-06T17:26:20;99978.41;;;13.56;100.00
63115;BME280;49208;50.874;6.466;2023-08-06T17:28:45;99983.91;;;13.52;100.00
63115;BME280;49208;50.874;6.466;2023-08-06T17:31:11;99994.81;;;13.49;100.00
63115;BME280;49208;50.874;6.466;2023-08-06T17:33:36;99993.25;;;13.45;100.00
63115;BME280;49208;50.874;6.466;2023-08-06T17:36:02;99995.13;;;13.43;100.00
63115;BME280;49208;50.874;6.466;2023-08-06T17:38:27;100004.19;;;13.41;100.00
63115;BME280;49208;50.874;6.466;2023-08-06T17:40:56;100013.16;;;13.40;100.00
63115;BME280;49208;50.874;6.466;2023-08-06T17:43:23;100011.66;;;13.34;100.00
63115;BME280;49208;50.874;6.466;2023-08-06T17:45:48;100017.13;;;13.32;100.00
63115;BME280;49208;50.874;6.466;2023-08-06T17:48:14;100019.84;;;13.31;100.00
63115;BME280;49208;50.874;6.466;2023-08-06T17:50:45;100020.94;;;13.27;100.00
63115;BME280;49208;50.874;6.466;2023-08-06T17:53:11;100023.69;;;13.25;100.00
63115;BME280;49208;50.874;6.466;2023-08-06T17:55:37;100035.41;;;13.23;100.00
63115;BME280;49208;50.874;6.466;2023-08-06T17:58:02;100031.09;;;13.20;100.00
63115;BME280;49208;50.874;6.466;2023-08-06T18:00:28;100038.22;;;13.20;100.00
63115;BME280;49208;50.874;6.466;2023-08-06T18:02:53;100036.59;;;13.17;100.00
63115;BME280;49208;50.874;6.466;2023-08-06T18:05:18;100048.56;;;13.10;100.00
63115;BME280;49208;50.874;6.466;2023-08-06T18:07:44;100037.16;;;13.06;100.00
63115;BME280;49208;50.874;6.466;2023-08-06T18:10:12;100034.56;;;13.05;100.00
63115;BME280;49208;50.874;6.466;2023-08-06T18:12:38;100043.59;;;13.02;100.00
63115;BME280;49208;50.874;6.466;2023-08-06T18:15:08;100053.44;;;13.02;100.00
63115;BME280;49208;50.874;6.466;2023-08-06T18:17:33;100060.59;;;13.01;100.00
63115;BME280;49208;50.874;6.466;2023-08-06T18:19:59;100058.06;;;12.98;100.00
63115;BME280;49208;50.874;6.466;2023-08-06T18:22:24;100064.38;;;12.97;100.00
63115;BME280;49208;50.874;6.466;2023-08-06T18:24:50;100068.94;;;12.95;100.00
63115;BME280;49208;50.874;6.466;2023-08-06T18:27:15;100068.22;;;12.91;100.00
63115;BME280;49208;50.874;6.466;2023-08-06T18:29:43;100078.13;;;12.89;100.00
63115;BME280;49208;50.874;6.466;2023-08-06T18:32:09;100076.69;;;12.82;100.00
63115;BME280;49208;50.874;6.466;2023-08-06T18:34:34;100083.75;;;12.83;100.00
63115;BME280;49208;50.874;6.466;2023-08-06T18:37:00;100098.16;;;12.81;100.00
63115;BME280;49208;50.874;6.466;2023-08-06T18:39:25;100091.13;;;12.78;100.00
63115;BME280;49208;50.874;6.466;2023-08-06T18:41:50;100098.47;;;12.74;100.00
63115;BME280;49208;50.874;6.466;2023-08-06T18:44:17;100095.00;;;12.72;100.00
63115;BME280;49208;50.874;6.466;2023-08-06T18:46:43;100096.88;;;12.70;100.00
63115;BME280;49208;50.874;6.466;2023-08-06T18:49:08;100099.56;;;12.70;100.00